Warning: Javascript must be enabled to use all the features on this page!


Page Loading - Please Wait...

Click to hideNews Bulletins

Peak Streamflow for the Nation

USGS 11345500 SF PIT R NR LIKELY CA

Modoc County, California
Hydrologic Unit Code 18020002
Latitude  41°13'51", Longitude 120°26'10" NAD27
Drainage area 247  square miles
Gage datum 4,508.00 feet above NGVD29
Output formats
Table
Graph
Tab-separated file
peakfq (watstore) format
Reselect output format
Water
Year
Date Gage
Height
(feet)
Stream-
flow
(cfs)
1932 1932-04-27 5.55 1,520
1933 1933-04-29 3.20 179
1934 1934-06-06 4.00 388
1935 1935-05-30 4.49 610
1936 1936-02-21 4.38 574
1937 1937-03-11 3.39 2536
1938 1938-05-16 4.90 9006
1939 1939-03-18 3.52 2906
1940 1940-05-12 3.31 2336
1941 1941-05-08 3.77 3226
1942 1942-05-25 4.01 4356
1943 1943-01-21 4.15 4846
1944 1944-01-21 3.87 3886
1945 1945-06-06 4.33 5496
1946 1946-04-29 4.03 4226
1947 1947-06-09 2.98 1566
1948 1948-06-05 4.54 6256
1949 1949-05-13 4.45 5926
1950 1950-02-05 3.92 4056
1951 1951-05-13 4.152 4666
1952 1952-04-05 4.87 8526
1953 1953-06-07 4.38 5676
1954 1954-04-27 3.33 2336
1955 1955-05-24 3.212 2086
1956 1956-05-27 4.21 5066
1957 1957-05-19 4.43 4746
1958 1958-05-12 4.56 6336
1959 1959-08-08 3.032 1716
1960 1960-02-08 3.44 2696
1961 1961-07-24 3.072 1896
1962 1962-05-28 4.02 4396
1963 1962-10-13 4.70 6846
1964 1964-06-10 4.75 7686
1965 1965-05-01 4.43 5426
1966 1966-05-10 3.282 2046
1967 1967-06-06 4.26 4926
1968 1968-08-19 3.29 2066
1969 1969-05-12 4.79 7406
1970 1970-05-23 3.83 3446
1971 1971-06-02 6.05 1,6206
1972 1972-05-16 4.001 3956
1973 1973-05-17 4.372 5466
1974 1974-01-19 4.59 6646
1975 1975-06-03 4.59 6646
1976 1976-08-03 3.83 3306
1977 1977-06-07 3.25 2026
1978 1978-04-26 3.78 3296
1979 1979-05-20 3.65 2956
1980 1980-05-24 3.84 3466
1981 1981-05-15 3.33 2326
1982 1982-05-27 3.842 3546
1983 1983-05-31 5.14 1,1506
1984 1984-05-25 4.86 8726
1985 1985-06-23 3.33 2196
1986 1986-03-08 4.23 4866
1987 1987-05-26 3.67 3006
1988 1988-04-17 3.34 2366
1989 1989-05-10 3.69 3356
1990 1990-06-26 2.91 1476
1991 1991-05-20 4.09 4816
1992 1992-06-19 2.87 1386
1993 1993-06-09 4.46 6406
1994 1994-06-14 3.20 1936
1995 1995-05-06 4.77 7946
1996 1996-05-19 4.48 5906
1997 1997-01-03 4.08 4266
1998 1998-06-12 5.22 1,0506
1999 1999-05-26 3.86 4006
2000 2000-05-17 3.50 2996
2001 2001-06-01 2.83 1306
2002 2002-04-15 2.92 1436
2003 2003-05-28 3.99 4616
2004 2004-05-28 3.17 1906
2005 2005-05-06 4.69 7126
2006 2006-05-05 4.28 5406
2007 2006-12-22 3.32 2196
2008 2008-05-28 3.77 3486
2009 2009-06-21 3.44 2576
2010 2010-06-07 3.62 3096
2011 2011-06-15 4.46 6366
2012 2012-05-21 3.24 2076
2013 2013-06-10 3.01 1586
2014 2013-12-12 3.16 1926
2015 2015-05-22 3.50 2716
2016 2016-05-21 3.87 4176
2017 2017-05-26 3.54 2916
2018 2018-05-26 3.86 3816
2019 2019-02-14 4.23 5282,6
2020 2020-06-24 3.30 2246
2021 2021-05-01 3.30 2226
?
  Peak Gage-Height Qualification Codes.
?
  Peak Streamflow Qualification Codes.